Time;durP1;ratioP1;P1;durP2;ratioP2;P2;SDS_P1;SDS_P2;PMS_P1;PMS_P2;Temp;Humidity;BMP_temperature;BMP_pressure;BME280_temperature;BME280_humidity;BME280_pressure;Samples;Min_cycle;Max_cycle;Signal;HPM_P1;HPM_P2
2023/05/17 00:00:48;;;;;;;16.53;4.90;;;9.40;99.90;;;;;;4971877;28;20077;-69
2023/05/17 00:03:13;;;;;;;18.70;5.10;;;9.30;99.90;;;;;;4972226;28;20317;-70
2023/05/17 00:05:39;;;;;;;20.07;5.07;;;9.30;99.90;;;;;;4957412;28;20058;-70
2023/05/17 00:08:05;;;;;;;21.00;4.80;;;9.20;99.90;;;;;;4956749;28;20050;-70
2023/05/17 00:10:30;;;;;;;14.80;4.70;;;9.20;99.90;;;;;;4974265;28;20050;-70
2023/05/17 00:12:56;;;;;;;14.10;4.97;;;9.20;99.90;;;;;;4974636;28;20077;-70
2023/05/17 00:15:22;;;;;;;15.67;4.77;;;9.10;99.90;;;;;;4990413;28;20596;-70
2023/05/17 00:17:48;;;;;;;15.17;4.27;;;9.10;99.90;;;;;;4992387;28;20038;-70
2023/05/17 00:20:13;;;;;;;16.00;4.70;;;9.10;99.90;;;;;;4973852;28;20040;-70
2023/05/17 00:22:39;;;;;;;18.13;4.90;;;9.00;99.90;;;;;;4993211;28;20132;-70
2023/05/17 00:25:06;;;;;;;14.83;4.90;;;9.00;99.90;;;;;;4978048;28;20433;-70
2023/05/17 00:27:32;;;;;;;15.33;4.60;;;9.00;99.90;;;;;;4994770;28;20066;-70
2023/05/17 00:29:57;;;;;;;14.80;4.73;;;8.90;99.90;;;;;;4994573;28;20050;-70
2023/05/17 00:32:23;;;;;;;15.27;4.70;;;8.90;99.90;;;;;;4976106;28;20057;-69
2023/05/17 00:34:49;;;;;;;16.67;4.70;;;8.80;99.90;;;;;;4960121;28;20266;-70
2023/05/17 00:37:14;;;;;;;15.20;4.30;;;8.80;99.90;;;;;;4959891;28;20042;-70
2023/05/17 00:39:40;;;;;;;21.13;4.40;;;8.80;99.90;;;;;;4976475;28;20082;-70
2023/05/17 00:42:06;;;;;;;20.00;4.90;;;8.70;99.90;;;;;;4990566;28;20045;-69
2023/05/17 00:44:31;;;;;;;13.83;4.00;;;8.70;99.90;;;;;;4976055;28;20057;-70
2023/05/17 00:47:01;;;;;;;14.53;4.93;;;8.70;99.90;;;;;;4960260;28;20137;-70
2023/05/17 00:49:27;;;;;;;16.07;4.53;;;8.70;99.90;;;;;;4961090;28;20050;-70
2023/05/17 00:51:54;;;;;;;20.00;4.70;;;8.70;99.90;;;;;;4976875;28;20034;-69
2023/05/17 00:54:20;;;;;;;14.23;4.00;;;8.70;99.90;;;;;;4993445;28;20058;-69
2023/05/17 00:56:46;;;;;;;19.80;5.17;;;8.70;99.90;;;;;;4959606;28;20054;-69
2023/05/17 00:59:12;;;;;;;17.73;5.73;;;8.80;99.90;;;;;;4959132;28;20062;-70
2023/05/17 01:01:41;;;;;;;19.07;4.40;;;8.70;99.90;;;;;;4992060;28;20110;-70
2023/05/17 01:04:08;;;;;;;16.90;4.50;;;8.80;99.90;;;;;;4976125;28;20050;-70
2023/05/17 01:06:35;;;;;;;15.40;4.00;;;8.70;99.90;;;;;;4992498;28;20042;-70
2023/05/17 01:09:01;;;;;;;17.37;4.73;;;8.70;99.90;;;;;;4990987;28;20122;-70
2023/05/17 01:11:38;;;;;;;20.73;4.67;;;8.70;99.90;;;;;;4944480;28;20065;-70
2023/05/17 01:14:25;;;;;;;18.17;4.13;;;8.70;99.90;;;;;;4975758;28;20057;-70
2023/05/17 01:17:00;;;;;;;16.13;4.30;;;8.60;99.90;;;;;;4973446;28;20058;-69
2023/05/17 01:19:52;;;;;;;17.10;4.70;;;8.60;99.90;;;;;;4992807;28;20165;-70
2023/05/17 01:22:27;;;;;;;14.03;4.30;;;8.60;99.90;;;;;;4993862;28;20046;-70
2023/05/17 01:25:25;;;;;;;15.50;4.13;;;8.60;99.90;;;;;;4974268;28;20054;-70
2023/05/17 01:27:54;;;;;;;17.07;4.33;;;8.50;99.90;;;;;;4951420;28;20074;-70
2023/05/17 01:30:21;;;;;;;20.20;4.60;;;8.50;99.90;;;;;;4973349;28;20406;-70
2023/05/17 01:32:47;;;;;;;16.17;4.60;;;8.50;99.90;;;;;;4974866;28;20086;-70
2023/05/17 01:35:13;;;;;;;18.17;4.97;;;8.50;99.90;;;;;;4954119;28;20073;-70
2023/05/17 01:37:39;;;;;;;14.37;3.90;;;8.50;99.90;;;;;;4957936;28;20086;-70
2023/05/17 01:40:07;;;;;;;20.23;4.60;;;8.50;99.90;;;;;;4955813;28;20422;-70
2023/05/17 01:42:40;;;;;;;17.57;4.80;;;8.50;99.90;;;;;;4974556;28;20058;-70
2023/05/17 01:45:22;;;;;;;18.67;5.37;;;8.50;99.90;;;;;;4941341;28;20055;-70
2023/05/17 01:48:02;;;;;;;19.17;4.47;;;8.50;99.90;;;;;;4955478;28;20054;-70
2023/05/17 01:50:31;;;;;;;15.93;4.77;;;8.60;99.90;;;;;;4955162;28;20054;-70
2023/05/17 01:53:18;;;;;;;17.33;4.10;;;8.50;99.90;;;;;;4973947;28;20043;-70
2023/05/17 01:55:50;;;;;;;13.80;4.10;;;8.50;99.90;;;;;;4954578;28;20082;-70
2023/05/17 01:58:20;;;;;;;20.60;4.10;;;8.50;99.90;;;;;;4957423;28;20054;-70
2023/05/17 02:00:50;;;;;;;15.95;4.05;;;8.50;99.90;;;;;;4956197;28;20046;-70
2023/05/17 02:03:17;;;;;;;17.90;4.30;;;8.50;99.90;;;;;;4940002;28;20421;-70
2023/05/17 02:05:43;;;;;;;23.27;4.93;;;8.40;99.90;;;;;;4956303;28;20055;-70
2023/05/17 02:08:08;;;;;;;14.50;4.17;;;8.40;99.90;;;;;;4958220;28;20039;-69
2023/05/17 02:10:34;;;;;;;18.03;5.00;;;8.40;99.90;;;;;;4956721;28;20081;-70
2023/05/17 02:13:00;;;;;;;18.93;4.40;;;8.40;99.90;;;;;;4940684;28;20073;-70
2023/05/17 02:15:26;;;;;;;16.87;3.50;;;8.30;99.90;;;;;;4942354;28;20140;-70
2023/05/17 02:17:51;;;;;;;19.73;4.33;;;8.30;99.90;;;;;;4956836;28;20045;-70
2023/05/17 02:20:17;;;;;;;17.83;4.33;;;8.30;99.90;;;;;;4954728;28;20106;-70
2023/05/17 02:22:43;;;;;;;19.90;5.10;;;8.30;99.90;;;;;;4952989;28;20051;-70
2023/05/17 02:25:09;;;;;;;21.07;4.47;;;8.30;99.90;;;;;;4955555;28;20065;-70
2023/05/17 02:27:35;;;;;;;19.30;4.00;;;8.30;99.90;;;;;;4983813;28;20092;-70
2023/05/17 02:30:01;;;;;;;17.47;4.60;;;8.30;99.90;;;;;;4996427;28;20054;-70
2023/05/17 02:32:27;;;;;;;23.33;4.67;;;8.30;99.90;;;;;;4994885;28;20042;-70
2023/05/17 02:34:54;;;;;;;18.30;4.60;;;8.30;99.90;;;;;;5014161;28;20124;-70
2023/05/17 02:37:19;;;;;;;16.50;3.83;;;8.30;99.90;;;;;;4995318;28;20732;-70
2023/05/17 02:39:45;;;;;;;17.73;3.67;;;8.30;99.90;;;;;;4976773;28;20046;-70
2023/05/17 02:42:11;;;;;;;18.20;4.37;;;8.20;99.90;;;;;;4978282;28;20548;-70
2023/05/17 02:44:37;;;;;;;19.30;3.93;;;8.20;99.90;;;;;;4974993;28;20042;-70
2023/05/17 02:47:03;;;;;;;18.73;5.23;;;8.10;99.90;;;;;;5012559;28;20101;-70
2023/05/17 02:49:28;;;;;;;13.70;3.50;;;8.10;99.90;;;;;;4996831;28;20054;-70
2023/05/17 02:51:54;;;;;;;16.27;4.47;;;8.10;99.90;;;;;;4979070;28;20057;-70
2023/05/17 02:54:20;;;;;;;17.63;4.50;;;8.10;99.90;;;;;;4994586;28;21019;-70
2023/05/17 02:56:46;;;;;;;16.33;3.97;;;8.00;99.90;;;;;;4994280;28;20049;-70
2023/05/17 02:59:12;;;;;;;15.13;3.80;;;8.00;99.90;;;;;;4978386;28;20045;-70
2023/05/17 03:01:37;;;;;;;15.50;3.63;;;8.00;99.90;;;;;;5013655;28;20208;-70
2023/05/17 03:04:03;;;;;;;16.03;4.10;;;8.00;99.90;;;;;;4993871;28;20050;-70
2023/05/17 03:06:30;;;;;;;17.00;4.40;;;8.00;99.90;;;;;;4979046;28;20053;-70
2023/05/17 03:08:56;;;;;;;18.40;4.00;;;7.90;99.90;;;;;;4992868;28;20042;-70
2023/05/17 03:11:21;;;;;;;12.40;4.10;;;7.80;99.90;;;;;;4978705;28;20057;-70
2023/05/17 03:13:50;;;;;;;21.57;4.13;;;7.80;99.90;;;;;;4993828;28;20132;-70
2023/05/17 03:16:16;;;;;;;15.40;3.83;;;7.80;99.90;;;;;;4995110;28;20465;-70
2023/05/17 03:18:42;;;;;;;14.70;4.17;;;7.80;99.90;;;;;;4994812;28;20098;-70
2023/05/17 03:21:08;;;;;;;16.07;3.80;;;7.80;99.90;;;;;;4976947;28;20049;-70
2023/05/17 03:23:34;;;;;;;14.53;3.77;;;7.90;99.90;;;;;;4992668;28;20053;-70
2023/05/17 03:25:59;;;;;;;15.63;3.60;;;7.90;99.90;;;;;;4978306;28;20593;-70
2023/05/17 03:28:25;;;;;;;21.37;4.20;;;7.90;99.90;;;;;;5009682;28;20077;-70
2023/05/17 03:30:51;;;;;;;18.10;4.67;;;8.00;99.90;;;;;;4978170;28;20068;-70
2023/05/17 03:33:18;;;;;;;18.73;4.27;;;8.00;99.90;;;;;;4962511;28;20298;-70
2023/05/17 03:35:45;;;;;;;20.20;4.80;;;7.90;99.90;;;;;;4974619;28;20053;-70
2023/05/17 03:38:12;;;;;;;19.90;3.97;;;7.90;99.90;;;;;;5011607;28;20069;-70
2023/05/17 03:40:38;;;;;;;16.20;4.27;;;7.90;99.90;;;;;;4979522;28;20133;-70
2023/05/17 03:43:04;;;;;;;14.30;3.87;;;7.90;99.90;;;;;;4994657;28;20046;-70
2023/05/17 03:45:29;;;;;;;19.27;4.83;;;8.00;99.90;;;;;;4945305;28;20056;-70
2023/05/17 03:47:55;;;;;;;16.87;4.17;;;8.00;99.90;;;;;;4977753;28;20070;-70
2023/05/17 03:50:21;;;;;;;19.60;4.10;;;8.00;99.90;;;;;;4977740;28;20078;-70
2023/05/17 03:52:47;;;;;;;14.77;3.67;;;8.10;99.90;;;;;;4994397;28;20060;-70
2023/05/17 03:55:12;;;;;;;14.90;3.50;;;8.10;99.90;;;;;;4993796;28;20117;-70
2023/05/17 03:57:38;;;;;;;18.53;4.13;;;8.10;99.90;;;;;;4947789;28;20501;-70
2023/05/17 04:00:10;;;;;;;16.27;3.60;;;8.20;99.90;;;;;;4983020;28;20432;-70
2023/05/17 04:02:36;;;;;;;12.05;3.53;;;8.10;99.90;;;;;;4966306;28;20040;-70
2023/05/17 04:05:01;;;;;;;16.37;4.47;;;8.10;99.90;;;;;;4982480;28;20050;-70
2023/05/17 04:07:27;;;;;;;13.87;3.40;;;8.20;99.90;;;;;;4966066;28;20046;-70
2023/05/17 04:09:58;;;;;;;17.33;3.83;;;8.10;99.90;;;;;;4999236;28;20046;-70
2023/05/17 04:12:23;;;;;;;13.23;3.20;;;8.20;99.90;;;;;;5015534;28;20126;-71
2023/05/17 04:14:49;;;;;;;15.87;3.50;;;8.20;99.90;;;;;;4982076;28;20114;-70
2023/05/17 04:17:15;;;;;;;8.80;3.30;;;8.20;99.90;;;;;;4998707;28;20101;-70
2023/05/17 04:19:41;;;;;;;14.50;3.50;;;8.30;99.90;;;;;;4979606;28;20047;-71
2023/05/17 04:22:06;;;;;;;11.37;3.30;;;8.30;99.90;;;;;;4998073;28;20842;-70
2023/05/17 04:24:32;;;;;;;15.07;3.50;;;8.20;99.90;;;;;;4997498;28;20054;-70
2023/05/17 04:26:58;;;;;;;19.23;3.50;;;8.20;99.90;;;;;;4983980;28;20053;-70
2023/05/17 04:29:24;;;;;;;10.83;3.60;;;8.20;99.90;;;;;;4998212;28;20458;-70
2023/05/17 04:31:50;;;;;;;10.47;3.30;;;8.20;99.90;;;;;;4984296;28;20048;-70
2023/05/17 04:34:15;;;;;;;14.20;3.37;;;8.20;99.90;;;;;;4979235;28;20044;-70
2023/05/17 04:36:41;;;;;;;19.90;3.60;;;8.20;99.90;;;;;;4994977;28;20050;-70
2023/05/17 04:39:07;;;;;;;13.20;3.47;;;8.30;99.90;;;;;;4978660;28;20729;-70
2023/05/17 04:41:32;;;;;;;14.87;3.10;;;8.30;99.90;;;;;;4967621;28;20053;-70
2023/05/17 04:43:58;;;;;;;9.43;2.90;;;8.30;99.90;;;;;;4955857;28;20049;-70
2023/05/17 04:46:24;;;;;;;9.77;3.00;;;8.30;99.90;;;;;;4981578;28;20052;-70
2023/05/17 04:48:50;;;;;;;6.73;3.03;;;8.30;99.90;;;;;;4999522;28;20049;-70
2023/05/17 04:51:15;;;;;;;12.47;3.03;;;8.30;99.90;;;;;;4946853;28;20560;-71
2023/05/17 04:53:41;;;;;;;9.47;2.73;;;8.30;99.90;;;;;;5000047;28;20049;-70
2023/05/17 04:56:07;;;;;;;5.27;2.43;;;8.30;99.90;;;;;;4996830;28;20132;-70
2023/05/17 04:58:32;;;;;;;14.37;2.70;;;8.30;99.90;;;;;;4977699;28;20109;-70
2023/05/17 05:00:58;;;;;;;13.70;2.50;;;8.40;99.90;;;;;;4999060;28;20423;-70
2023/05/17 05:03:25;;;;;;;10.80;2.40;;;8.40;99.90;;;;;;4998434;28;20681;-70
2023/05/17 05:05:50;;;;;;;14.30;2.50;;;8.40;99.90;;;;;;4999129;28;20049;-70
2023/05/17 05:08:16;;;;;;;9.37;2.13;;;8.40;99.90;;;;;;4996741;28;20054;-70
2023/05/17 05:10:42;;;;;;;8.93;2.17;;;8.40;99.90;;;;;;4997755;28;20034;-70
2023/05/17 05:13:07;;;;;;;9.80;2.87;;;8.40;99.90;;;;;;4980914;28;20038;-71
2023/05/17 05:15:33;;;;;;;10.07;2.63;;;8.40;99.90;;;;;;4998450;28;20137;-70
2023/05/17 05:17:59;;;;;;;11.60;3.50;;;8.50;99.90;;;;;;4950229;28;20136;-70
2023/05/17 05:20:25;;;;;;;10.73;2.50;;;8.50;99.90;;;;;;4979154;28;20061;-70
2023/05/17 05:22:50;;;;;;;8.40;2.00;;;8.50;99.90;;;;;;5013552;28;20046;-70
2023/05/17 05:25:16;;;;;;;8.20;2.33;;;8.50;99.90;;;;;;4996702;28;20069;-73
2023/05/17 05:27:42;;;;;;;8.00;2.10;;;8.60;99.90;;;;;;4979714;28;20058;-70
2023/05/17 05:30:08;;;;;;;7.27;2.40;;;8.60;99.90;;;;;;4979707;28;20386;-70
2023/05/17 05:32:36;;;;;;;10.03;2.50;;;8.70;99.90;;;;;;4996573;28;20075;-70
2023/05/17 05:35:04;;;;;;;7.97;2.00;;;8.70;99.90;;;;;;4949245;28;20069;-70
2023/05/17 05:37:30;;;;;;;5.57;1.70;;;8.80;99.90;;;;;;4980117;28;20093;-70
2023/05/17 05:39:56;;;;;;;11.57;2.40;;;8.80;99.90;;;;;;4965452;28;20646;-70
2023/05/17 05:42:22;;;;;;;7.47;2.20;;;8.80;99.90;;;;;;4992452;28;20057;-70
2023/05/17 05:44:47;;;;;;;9.30;3.03;;;8.80;99.90;;;;;;4978444;28;20041;-70
2023/05/17 05:47:13;;;;;;;9.83;2.37;;;8.90;99.90;;;;;;4977436;28;20079;-70
2023/05/17 05:49:39;;;;;;;9.63;2.17;;;9.00;99.90;;;;;;4991920;28;20045;-70
2023/05/17 05:52:04;;;;;;;7.27;2.07;;;9.10;99.90;;;;;;4982769;28;20050;-70
2023/05/17 05:54:30;;;;;;;9.77;2.47;;;9.20;99.90;;;;;;4947420;28;20133;-71
2023/05/17 05:56:59;;;;;;;6.67;1.67;;;9.30;99.90;;;;;;4985173;28;20045;-70
2023/05/17 05:59:25;;;;;;;8.97;2.07;;;9.30;99.90;;;;;;4981489;28;20054;-70
2023/05/17 06:01:51;;;;;;;5.13;1.63;;;9.40;99.90;;;;;;4984491;28;20062;-70
2023/05/17 06:04:17;;;;;;;10.27;1.97;;;9.40;99.90;;;;;;4964997;28;20060;-70
2023/05/17 06:06:42;;;;;;;10.80;2.27;;;9.40;99.90;;;;;;4994404;28;20377;-70
2023/05/17 06:09:11;;;;;;;9.70;2.00;;;9.40;99.90;;;;;;4980908;28;20050;-70
2023/05/17 06:11:37;;;;;;;8.90;1.90;;;9.40;99.90;;;;;;4994982;28;20069;-70
2023/05/17 06:14:03;;;;;;;7.27;1.90;;;9.40;99.90;;;;;;4979042;28;20042;-69
2023/05/17 06:16:28;;;;;;;8.03;1.80;;;9.40;99.90;;;;;;5009576;28;20050;-70
2023/05/17 06:18:54;;;;;;;6.47;2.10;;;9.40;99.90;;;;;;4988294;28;20095;-69
2023/05/17 06:21:20;;;;;;;7.17;2.40;;;9.50;99.90;;;;;;4991751;28;20732;-69
2023/05/17 06:23:46;;;;;;;9.67;2.03;;;9.50;99.90;;;;;;4947978;28;20117;-70
2023/05/17 06:26:12;;;;;;;7.30;2.80;;;9.60;99.90;;;;;;4964973;28;20053;-70
2023/05/17 06:28:37;;;;;;;12.57;2.30;;;9.50;99.90;;;;;;4947563;28;20058;-68
2023/05/17 06:31:03;;;;;;;10.10;2.33;;;9.50;99.90;;;;;;4981052;28;20146;-69
2023/05/17 06:33:29;;;;;;;7.67;2.17;;;9.50;99.90;;;;;;4980285;28;20060;-69
2023/05/17 06:35:55;;;;;;;10.53;2.53;;;9.50;99.90;;;;;;4966099;28;21485;-70
2023/05/17 06:38:21;;;;;;;10.70;2.50;;;9.50;99.90;;;;;;4980081;28;20065;-70
2023/05/17 06:40:52;;;;;;;14.40;2.70;;;9.70;99.90;;;;;;4999643;28;20133;-71
2023/05/17 06:43:18;;;;;;;10.60;2.63;;;9.80;99.90;;;;;;4966000;28;20053;-70
2023/05/17 06:45:44;;;;;;;9.63;2.70;;;9.90;99.90;;;;;;4960780;28;20076;-70
2023/05/17 06:48:09;;;;;;;13.37;2.77;;;10.10;99.90;;;;;;4981921;28;20046;-70
2023/05/17 06:50:35;;;;;;;15.97;2.83;;;10.20;99.90;;;;;;4947959;28;20076;-70
2023/05/17 06:53:02;;;;;;;10.97;2.57;;;10.30;99.90;;;;;;4931599;28;20038;-70
2023/05/17 06:55:28;;;;;;;9.87;2.20;;;10.20;99.90;;;;;;4997229;28;20056;-70
2023/05/17 06:57:54;;;;;;;12.97;3.00;;;10.20;99.90;;;;;;4979273;28;20556;-71
2023/05/17 07:00:20;;;;;;;12.30;2.20;;;10.10;99.90;;;;;;4962988;28;20530;-70
2023/05/17 07:02:46;;;;;;;11.37;2.70;;;10.10;99.90;;;;;;4979632;28;20100;-70
2023/05/17 07:05:12;;;;;;;8.53;2.10;;;10.00;99.90;;;;;;4981449;28;20046;-73
2023/05/17 07:07:38;;;;;;;8.17;2.73;;;10.00;99.90;;;;;;4964064;28;20057;-72
2023/05/17 07:10:05;;;;;;;12.40;2.50;;;10.10;99.90;;;;;;4947800;28;20050;-72
2023/05/17 07:12:30;;;;;;;10.10;2.93;;;10.10;99.90;;;;;;4980194;28;20050;-72
2023/05/17 07:14:56;;;;;;;13.23;2.53;;;10.10;99.90;;;;;;4979874;28;20038;-72
2023/05/17 07:17:22;;;;;;;10.87;2.50;;;10.00;99.90;;;;;;4980181;28;20141;-71
2023/05/17 07:19:49;;;;;;;13.50;2.67;;;10.00;99.90;;;;;;4931907;28;20150;-71
2023/05/17 07:22:16;;;;;;;7.37;2.20;;;10.00;99.90;;;;;;4964659;28;20050;-71
2023/05/17 07:24:43;;;;;;;14.87;3.10;;;9.90;99.90;;;;;;4963176;28;20065;-70
2023/05/17 07:27:09;;;;;;;15.20;3.23;;;9.90;99.90;;;;;;4998620;28;20050;-70
2023/05/17 07:29:35;;;;;;;18.70;3.67;;;9.90;99.90;;;;;;4979189;28;20096;-70
2023/05/17 07:32:01;;;;;;;11.90;3.40;;;9.80;99.90;;;;;;4963328;28;20062;-70
2023/05/17 07:34:26;;;;;;;12.97;3.50;;;9.80;99.90;;;;;;4997095;28;20219;-70
2023/05/17 07:36:52;;;;;;;13.37;3.20;;;9.70;99.90;;;;;;4962949;28;20049;-70
2023/05/17 07:39:18;;;;;;;12.20;2.93;;;9.70;99.90;;;;;;4963827;28;20077;-70
2023/05/17 07:41:43;;;;;;;14.00;3.07;;;9.70;99.90;;;;;;4979641;28;20947;-70
2023/05/17 07:44:09;;;;;;;13.67;3.03;;;9.70;99.90;;;;;;4976837;28;20053;-70
2023/05/17 07:46:35;;;;;;;9.57;2.77;;;9.70;99.90;;;;;;4991409;28;20544;-69
2023/05/17 07:49:01;;;;;;;15.67;3.27;;;9.60;99.90;;;;;;4963356;28;20096;-70
2023/05/17 07:51:27;;;;;;;12.57;3.13;;;9.60;99.90;;;;;;4948468;28;20058;-70
2023/05/17 07:53:52;;;;;;;16.37;3.23;;;9.60;99.90;;;;;;4963632;28;20467;-70
2023/05/17 07:56:18;;;;;;;8.97;2.97;;;9.70;99.90;;;;;;4978163;28;20172;-70
2023/05/17 07:58:44;;;;;;;11.43;3.10;;;9.70;99.90;;;;;;4976529;28;20393;-70
2023/05/17 08:01:10;;;;;;;14.10;2.90;;;9.70;99.90;;;;;;4964213;28;20446;-70
2023/05/17 08:03:35;;;;;;;10.67;2.70;;;9.80;99.90;;;;;;4964514;28;20053;-70
2023/05/17 08:06:01;;;;;;;13.30;3.27;;;9.90;99.90;;;;;;4980362;28;20053;-70
2023/05/17 08:08:27;;;;;;;11.57;3.13;;;10.00;99.90;;;;;;4980669;28;20050;-70
2023/05/17 08:10:53;;;;;;;12.10;3.17;;;10.10;99.90;;;;;;4980014;28;20042;-70
2023/05/17 08:13:18;;;;;;;8.93;2.57;;;10.10;99.90;;;;;;4997087;28;20053;-70
2023/05/17 08:15:44;;;;;;;13.87;2.90;;;10.10;99.90;;;;;;4962895;28;20424;-70
2023/05/17 08:18:10;;;;;;;7.87;2.70;;;10.30;99.90;;;;;;4979496;28;20053;-70
2023/05/17 08:20:36;;;;;;;9.03;2.57;;;10.30;99.90;;;;;;4979472;28;20041;-70
2023/05/17 08:23:02;;;;;;;11.70;2.87;;;10.40;99.90;;;;;;4996322;28;20061;-70
2023/05/17 08:25:27;;;;;;;11.10;2.70;;;10.50;99.90;;;;;;4979680;28;20038;-70
2023/05/17 08:27:53;;;;;;;13.77;3.00;;;10.60;99.90;;;;;;4980296;28;20969;-70
2023/05/17 08:30:19;;;;;;;12.20;2.50;;;10.60;99.90;;;;;;4978260;28;20100;-80
2023/05/17 08:32:44;;;;;;;12.23;2.70;;;10.70;99.90;;;;;;4961737;28;20088;-70
2023/05/17 08:35:11;;;;;;;12.13;2.97;;;10.70;99.90;;;;;;4979207;28;20232;-70
2023/05/17 08:37:36;;;;;;;10.73;2.37;;;10.60;99.90;;;;;;4931540;28;20078;-70
2023/05/17 08:40:03;;;;;;;9.13;2.53;;;10.60;99.90;;;;;;4980367;28;20065;-70
2023/05/17 08:42:29;;;;;;;7.93;2.53;;;10.60;99.90;;;;;;4963350;28;20050;-70
2023/05/17 08:44:55;;;;;;;16.43;2.90;;;10.60;99.90;;;;;;4980409;28;20049;-71
2023/05/17 08:47:25;;;;;;;7.87;2.57;;;10.50;99.90;;;;;;4965100;28;20057;-70
2023/05/17 08:49:56;;;;;;;9.70;2.47;;;10.50;99.90;;;;;;4965178;28;20050;-70
2023/05/17 08:52:22;;;;;;;11.10;2.95;;;10.40;99.90;;;;;;5000821;28;20034;-70
2023/05/17 08:54:48;;;;;;;10.13;2.50;;;10.30;99.90;;;;;;4982877;28;20042;-70
2023/05/17 08:57:16;;;;;;;11.97;2.50;;;10.40;99.90;;;;;;4967032;28;20417;-70
2023/05/17 08:59:43;;;;;;;12.93;2.60;;;10.50;99.90;;;;;;4980752;28;20054;-70
2023/05/17 09:02:09;;;;;;;10.53;3.10;;;10.60;99.90;;;;;;4979362;28;20389;-70
2023/05/17 09:04:36;;;;;;;10.27;2.33;;;10.70;99.90;;;;;;4982049;28;20041;-70
2023/05/17 09:07:01;;;;;;;9.23;2.67;;;10.80;99.90;;;;;;4966455;28;20087;-70
2023/05/17 09:09:27;;;;;;;13.10;3.13;;;10.80;99.90;;;;;;4982704;28;20340;-70
2023/05/17 09:11:54;;;;;;;11.87;2.70;;;10.80;99.90;;;;;;4965862;28;20060;-70
2023/05/17 09:14:19;;;;;;;7.40;2.47;;;10.70;99.90;;;;;;4950717;28;20045;-70
2023/05/17 09:16:45;;;;;;;9.57;2.80;;;10.60;99.90;;;;;;5000404;28;20060;-70
2023/05/17 09:19:16;;;;;;;11.17;2.70;;;10.60;99.90;;;;;;4966368;28;20053;-69
2023/05/17 09:21:46;;;;;;;11.40;2.50;;;10.60;99.90;;;;;;4979415;28;20052;-70
2023/05/17 09:24:12;;;;;;;12.93;2.73;;;10.70;99.90;;;;;;4981539;28;20100;-69
2023/05/17 09:26:43;;;;;;;12.83;2.57;;;10.80;99.90;;;;;;4983249;28;21416;-70
2023/05/17 09:29:14;;;;;;;11.90;2.60;;;10.90;99.90;;;;;;4982438;28;20101;-69
2023/05/17 09:31:40;;;;;;;13.27;2.50;;;11.00;99.90;;;;;;4982174;28;20080;-70
2023/05/17 09:34:06;;;;;;;7.73;2.90;;;11.10;99.90;;;;;;4981324;28;20042;-70
2023/05/17 09:36:34;;;;;;;9.00;2.20;;;11.20;99.90;;;;;;4999477;28;20575;-70
2023/05/17 09:39:04;;;;;;;12.27;2.33;;;11.20;99.90;;;;;;4963365;28;20049;-70
2023/05/17 09:41:41;;;;;;;10.10;2.50;;;11.20;99.90;;;;;;4983147;28;20057;-70
2023/05/17 09:44:11;;;;;;;14.77;2.63;;;11.20;99.90;;;;;;4999974;28;20099;-70
2023/05/17 09:46:47;;;;;;;11.50;3.03;;;11.40;99.90;;;;;;4982249;28;20053;-70
2023/05/17 09:49:14;;;;;;;5.87;1.70;;;11.60;99.90;;;;;;4982927;28;20050;-70
2023/05/17 09:51:42;;;;;;;8.47;2.30;;;11.70;99.90;;;;;;5000684;28;20049;-70
2023/05/17 09:54:12;;;;;;;8.77;2.27;;;11.70;99.90;;;;;;4981964;28;20049;-70
2023/05/17 09:56:38;;;;;;;9.87;2.20;;;11.60;99.90;;;;;;4981821;28;20050;-70
2023/05/17 09:59:11;;;;;;;10.27;2.43;;;11.50;99.90;;;;;;4979392;28;20513;-70
2023/05/17 10:01:39;;;;;;;10.73;2.67;;;11.50;99.90;;;;;;4961440;28;20034;-70
2023/05/17 10:04:09;;;;;;;12.27;2.33;;;11.50;99.90;;;;;;4999365;28;20104;-70
2023/05/17 10:06:40;;;;;;;9.43;2.27;;;11.50;99.90;;;;;;4998978;28;20069;-70
2023/05/17 10:09:11;;;;;;;10.43;2.20;;;11.60;99.90;;;;;;4983046;28;20084;-70
2023/05/17 10:11:37;;;;;;;8.03;2.10;;;11.60;99.90;;;;;;4982147;28;20086;-70
2023/05/17 10:14:22;;;;;;;6.03;2.23;;;11.80;99.90;;;;;;4980529;28;20060;-70
2023/05/17 10:16:50;;;;;;;10.03;2.23;;;12.00;99.90;;;;;;4979254;28;20053;-70
2023/05/17 10:19:18;;;;;;;8.10;1.70;;;12.10;99.90;;;;;;4949424;28;20685;-70
2023/05/17 10:21:50;;;;;;;8.40;2.20;;;12.10;99.90;;;;;;4982728;28;20080;-70
2023/05/17 10:24:16;;;;;;;7.77;2.30;;;12.30;99.90;;;;;;4965582;28;20052;-70
2023/05/17 10:26:43;;;;;;;9.90;2.33;;;12.20;99.90;;;;;;4965808;28;20304;-70
2023/05/17 10:29:09;;;;;;;9.97;3.23;;;12.10;99.90;;;;;;4979250;28;20053;-70
2023/05/17 10:31:35;;;;;;;7.68;2.03;;;12.00;99.90;;;;;;4998323;28;20477;-70
2023/05/17 10:34:05;;;;;;;12.17;2.90;;;11.80;99.90;;;;;;4947418;28;20238;-70
2023/05/17 10:36:32;;;;;;;8.60;2.30;;;11.70;99.90;;;;;;4962859;28;20054;-70
2023/05/17 10:38:58;;;;;;;9.55;3.63;;;11.70;99.90;;;;;;4960960;28;20033;-71
2023/05/17 10:41:33;;;;;;;7.03;2.30;;;11.70;99.90;;;;;;4964135;28;20326;-70
2023/05/17 10:44:01;;;;;;;7.03;2.13;;;11.70;99.90;;;;;;4965542;28;20579;-70
2023/05/17 10:46:29;;;;;;;7.83;2.00;;;11.60;99.90;;;;;;4949124;28;20049;-70
2023/05/17 10:48:57;;;;;;;9.07;2.80;;;11.90;99.90;;;;;;4981704;28;20183;-70
2023/05/17 10:51:32;;;;;;;10.53;2.00;;;12.00;99.90;;;;;;4998008;28;20080;-70
2023/05/17 10:54:17;;;;;;;8.90;2.10;;;12.30;99.90;;;;;;4981593;28;20046;-70
2023/05/17 10:56:52;;;;;;;10.13;2.20;;;12.30;99.90;;;;;;4965472;28;20087;-70
2023/05/17 10:59:25;;;;;;;8.93;2.60;;;12.20;99.90;;;;;;4980631;28;20056;-70
2023/05/17 11:02:07;;;;;;;10.50;2.40;;;12.00;99.90;;;;;;4997644;28;20091;-70
2023/05/17 11:04:37;;;;;;;7.70;2.35;;;11.90;99.90;;;;;;4981599;28;20509;-70
2023/05/17 11:07:31;;;;;;;10.27;2.47;;;12.00;99.90;;;;;;4980293;28;20088;-70
2023/05/17 11:10:04;;;;;;;6.77;2.13;;;12.20;99.90;;;;;;4998299;28;20061;-71
2023/05/17 11:12:41;;;;;;;10.27;2.70;;;12.10;99.90;;;;;;4981462;28;20700;-70
2023/05/17 11:15:14;;;;;;;9.20;2.00;;;11.90;99.90;;;;;;4981526;28;20458;-70
2023/05/17 11:17:43;;;;;;;7.43;2.43;;;11.80;99.90;;;;;;4997460;28;20045;-70
2023/05/17 11:20:25;;;;;;;5.33;1.63;;;11.80;99.90;;;;;;4965413;28;20042;-70
2023/05/17 11:23:03;;;;;;;5.93;2.03;;;11.90;99.90;;;;;;4980356;28;20854;-70
2023/05/17 11:25:35;;;;;;;7.13;1.80;;;11.90;99.90;;;;;;4980297;28;20062;-70
2023/05/17 11:28:20;;;;;;;7.30;2.10;;;11.70;98.80;;;;;;4997746;28;20651;-70
2023/05/17 11:30:50;;;;;;;11.07;2.20;;;11.70;99.90;;;;;;4966729;28;20258;-71
2023/05/17 11:33:16;;;;;;;6.67;1.80;;;11.90;99.90;;;;;;4980867;28;20060;-69
2023/05/17 11:35:43;;;;;;;4.93;2.13;;;12.20;99.90;;;;;;4998545;28;20122;-70
2023/05/17 11:38:26;;;;;;;9.07;2.20;;;12.20;96.70;;;;;;4980933;28;20263;-70
2023/05/17 11:40:53;;;;;;;8.00;2.30;;;12.10;95.20;;;;;;4980459;28;20050;-70
2023/05/17 11:43:22;;;;;;;7.27;1.97;;;12.10;98.40;;;;;;4982498;28;20057;-70
2023/05/17 11:46:02;;;;;;;5.07;2.03;;;12.30;97.30;;;;;;4997099;28;20058;-70
2023/05/17 11:48:29;;;;;;;9.63;2.23;;;12.30;94.60;;;;;;4981043;28;20042;-70
2023/05/17 11:50:58;;;;;;;7.97;1.80;;;12.50;99.90;;;;;;4994480;28;20057;-70
2023/05/17 11:53:26;;;;;;;9.10;2.45;;;12.90;97.20;;;;;;4980323;28;20038;-70
2023/05/17 11:55:52;;;;;;;6.30;1.92;;;13.00;90.00;;;;;;4962449;28;20050;-70
2023/05/17 11:58:24;;;;;;;9.60;2.13;;;13.00;90.10;;;;;;4980109;28;20049;-70
2023/05/17 12:00:54;;;;;;;6.28;1.98;;;12.80;92.30;;;;;;4997374;28;21594;-70
2023/05/17 12:03:25;;;;;;;8.85;2.25;;;12.50;91.40;;;;;;4997444;28;20053;-70
2023/05/17 12:06:03;;;;;;;11.10;2.23;;;12.60;93.50;;;;;;4998309;28;20056;-70
2023/05/17 12:08:30;;;;;;;7.47;2.13;;;12.80;90.70;;;;;;4980755;28;20510;-70
2023/05/17 12:10:57;;;;;;;7.20;2.08;;;12.80;94.50;;;;;;4995641;28;20061;-71
2023/05/17 12:13:23;;;;;;;5.45;2.30;;;12.90;93.70;;;;;;4998290;28;20046;-70
2023/05/17 12:16:01;;;;;;;7.82;2.28;;;13.00;90.40;;;;;;4964984;28;20042;-70
2023/05/17 12:18:53;;;;;;;7.43;2.03;;;12.80;84.50;;;;;;4998479;28;20106;-70
2023/05/17 12:21:20;;;;;;;9.18;2.50;;;12.50;89.70;;;;;;4963203;28;20202;-70
2023/05/17 12:23:49;;;;;;;6.82;2.70;;;12.30;98.10;;;;;;4974025;28;20054;-70
2023/05/17 12:26:16;;;;;;;7.45;2.17;;;12.20;99.90;;;;;;5002241;28;20076;-70
2023/05/17 12:28:59;;;;;;;11.65;2.42;;;12.50;99.90;;;;;;4984329;28;20054;-70
2023/05/17 12:31:29;;;;;;;5.30;1.75;;;12.60;99.90;;;;;;5013206;28;20037;-70
2023/05/17 12:33:57;;;;;;;7.82;2.30;;;12.70;91.90;;;;;;4981451;28;20095;-70
2023/05/17 12:36:24;;;;;;;6.05;2.00;;;12.80;94.20;;;;;;4999781;28;20045;-70
2023/05/17 12:38:52;;;;;;;9.13;2.55;;;13.20;93.10;;;;;;4997110;28;20057;-70
2023/05/17 12:41:18;;;;;;;7.78;2.28;;;13.30;89.60;;;;;;5016742;28;20068;-70
2023/05/17 12:43:44;;;;;;;7.75;1.70;;;13.00;85.60;;;;;;4981881;28;20120;-70
2023/05/17 12:46:17;;;;;;;11.45;2.03;;;12.90;86.00;;;;;;5000260;28;20060;-70
2023/05/17 12:48:43;;;;;;;5.88;2.30;;;12.90;85.00;;;;;;4984708;28;20508;-70